sensor_id;sensor_type;location;lat;lon;timestamp;P1;durP1;ratioP1;P2;durP2;ratioP2
80127;SDS011;69440;52.118;5.408;2024-03-07T00:02:41;25.65;;;12.02;;
80127;SDS011;69440;52.118;5.408;2024-03-07T00:05:09;22.98;;;11.18;;
80127;SDS011;69440;52.118;5.408;2024-03-07T00:07:36;23.10;;;12.00;;
80127;SDS011;69440;52.118;5.408;2024-03-07T00:10:03;21.17;;;10.57;;
80127;SDS011;69440;52.118;5.408;2024-03-07T00:12:31;24.55;;;10.90;;
80127;SDS011;69440;52.118;5.408;2024-03-07T00:14:59;24.58;;;11.15;;
80127;SDS011;69440;52.118;5.408;2024-03-07T00:17:25;21.67;;;10.60;;
80127;SDS011;69440;52.118;5.408;2024-03-07T00:22:18;23.73;;;11.25;;
80127;SDS011;69440;52.118;5.408;2024-03-07T00:24:44;26.60;;;11.68;;
80127;SDS011;69440;52.118;5.408;2024-03-07T00:27:13;24.60;;;11.18;;
80127;SDS011;69440;52.118;5.408;2024-03-07T00:29:43;26.48;;;11.82;;
80127;SDS011;69440;52.118;5.408;2024-03-07T00:32:10;27.30;;;12.55;;
80127;SDS011;69440;52.118;5.408;2024-03-07T00:34:39;25.77;;;11.13;;
80127;SDS011;69440;52.118;5.408;2024-03-07T00:39:33;17.70;;;9.07;;
80127;SDS011;69440;52.118;5.408;2024-03-07T00:41:59;23.83;;;10.68;;
80127;SDS011;69440;52.118;5.408;2024-03-07T00:44:26;21.33;;;9.77;;
80127;SDS011;69440;52.118;5.408;2024-03-07T00:49:19;22.25;;;8.80;;
80127;SDS011;69440;52.118;5.408;2024-03-07T00:51:46;21.15;;;10.27;;
80127;SDS011;69440;52.118;5.408;2024-03-07T00:56:39;20.20;;;9.10;;
80127;SDS011;69440;52.118;5.408;2024-03-07T00:59:05;25.35;;;11.40;;
80127;SDS011;69440;52.118;5.408;2024-03-07T01:04:04;19.83;;;9.50;;
80127;SDS011;69440;52.118;5.408;2024-03-07T01:08:57;18.40;;;8.13;;
80127;SDS011;69440;52.118;5.408;2024-03-07T01:11:23;19.38;;;10.05;;
80127;SDS011;69440;52.118;5.408;2024-03-07T01:13:50;22.15;;;10.30;;
80127;SDS011;69440;52.118;5.408;2024-03-07T01:18:43;21.67;;;10.57;;
80127;SDS011;69440;52.118;5.408;2024-03-07T01:21:09;19.45;;;9.90;;
80127;SDS011;69440;52.118;5.408;2024-03-07T01:23:36;15.98;;;9.20;;
80127;SDS011;69440;52.118;5.408;2024-03-07T01:26:02;22.50;;;9.98;;
80127;SDS011;69440;52.118;5.408;2024-03-07T01:28:29;18.90;;;9.15;;
80127;SDS011;69440;52.118;5.408;2024-03-07T01:30:56;19.48;;;10.05;;
80127;SDS011;69440;52.118;5.408;2024-03-07T01:33:24;23.77;;;10.13;;
80127;SDS011;69440;52.118;5.408;2024-03-07T01:35:51;20.23;;;10.15;;
80127;SDS011;69440;52.118;5.408;2024-03-07T01:38:18;22.10;;;10.95;;
80127;SDS011;69440;52.118;5.408;2024-03-07T01:40:45;23.58;;;11.52;;
80127;SDS011;69440;52.118;5.408;2024-03-07T01:43:11;21.67;;;11.30;;
80127;SDS011;69440;52.118;5.408;2024-03-07T01:48:05;22.67;;;9.73;;
80127;SDS011;69440;52.118;5.408;2024-03-07T01:50:33;23.77;;;10.23;;
80127;SDS011;69440;52.118;5.408;2024-03-07T01:53:00;22.10;;;10.55;;
80127;SDS011;69440;52.118;5.408;2024-03-07T01:55:27;23.80;;;11.23;;
80127;SDS011;69440;52.118;5.408;2024-03-07T01:57:57;22.42;;;11.27;;
80127;SDS011;69440;52.118;5.408;2024-03-07T02:00:26;21.83;;;10.32;;
80127;SDS011;69440;52.118;5.408;2024-03-07T02:05:20;20.38;;;9.95;;
80127;SDS011;69440;52.118;5.408;2024-03-07T02:07:47;21.60;;;9.55;;
80127;SDS011;69440;52.118;5.408;2024-03-07T02:10:14;19.58;;;9.40;;
80127;SDS011;69440;52.118;5.408;2024-03-07T02:12:41;19.50;;;10.68;;
80127;SDS011;69440;52.118;5.408;2024-03-07T02:17:34;20.90;;;9.90;;
80127;SDS011;69440;52.118;5.408;2024-03-07T02:20:02;20.88;;;10.80;;
80127;SDS011;69440;52.118;5.408;2024-03-07T02:22:30;23.15;;;11.18;;
80127;SDS011;69440;52.118;5.408;2024-03-07T02:27:23;23.75;;;10.00;;
80127;SDS011;69440;52.118;5.408;2024-03-07T02:29:49;23.00;;;11.73;;
80127;SDS011;69440;52.118;5.408;2024-03-07T02:32:17;22.30;;;11.60;;
80127;SDS011;69440;52.118;5.408;2024-03-07T02:34:44;21.13;;;10.30;;
80127;SDS011;69440;52.118;5.408;2024-03-07T02:37:10;21.00;;;9.20;;
80127;SDS011;69440;52.118;5.408;2024-03-07T02:39:37;22.42;;;11.00;;
80127;SDS011;69440;52.118;5.408;2024-03-07T02:42:03;24.17;;;11.00;;
80127;SDS011;69440;52.118;5.408;2024-03-07T02:44:30;23.42;;;10.55;;
80127;SDS011;69440;52.118;5.408;2024-03-07T02:46:58;21.42;;;9.98;;
80127;SDS011;69440;52.118;5.408;2024-03-07T02:49:24;20.73;;;10.20;;
80127;SDS011;69440;52.118;5.408;2024-03-07T02:54:17;22.92;;;10.52;;
80127;SDS011;69440;52.118;5.408;2024-03-07T02:56:44;23.35;;;11.27;;
80127;SDS011;69440;52.118;5.408;2024-03-07T02:59:11;26.90;;;11.18;;
80127;SDS011;69440;52.118;5.408;2024-03-07T03:01:38;21.92;;;10.07;;
80127;SDS011;69440;52.118;5.408;2024-03-07T03:04:05;21.35;;;10.60;;
80127;SDS011;69440;52.118;5.408;2024-03-07T03:06:32;23.95;;;11.10;;
80127;SDS011;69440;52.118;5.408;2024-03-07T03:08:59;26.35;;;11.23;;
80127;SDS011;69440;52.118;5.408;2024-03-07T03:11:26;23.83;;;10.60;;
80127;SDS011;69440;52.118;5.408;2024-03-07T03:13:53;22.58;;;11.27;;
80127;SDS011;69440;52.118;5.408;2024-03-07T03:16:20;23.55;;;11.38;;
80127;SDS011;69440;52.118;5.408;2024-03-07T03:19:07;22.40;;;11.25;;
80127;SDS011;69440;52.118;5.408;2024-03-07T03:21:35;23.02;;;11.05;;
80127;SDS011;69440;52.118;5.408;2024-03-07T03:24:02;24.35;;;12.27;;
80127;SDS011;69440;52.118;5.408;2024-03-07T03:26:29;21.60;;;10.05;;
80127;SDS011;69440;52.118;5.408;2024-03-07T03:28:58;27.23;;;11.77;;
80127;SDS011;69440;52.118;5.408;2024-03-07T03:31:25;26.58;;;11.05;;
80127;SDS011;69440;52.118;5.408;2024-03-07T03:33:51;26.65;;;11.02;;
80127;SDS011;69440;52.118;5.408;2024-03-07T03:36:18;23.33;;;11.00;;
80127;SDS011;69440;52.118;5.408;2024-03-07T03:38:45;26.02;;;10.95;;
80127;SDS011;69440;52.118;5.408;2024-03-07T03:41:15;24.63;;;10.93;;
80127;SDS011;69440;52.118;5.408;2024-03-07T03:43:43;23.05;;;10.65;;
80127;SDS011;69440;52.118;5.408;2024-03-07T03:46:10;24.27;;;11.73;;
80127;SDS011;69440;52.118;5.408;2024-03-07T03:48:38;23.83;;;11.13;;
80127;SDS011;69440;52.118;5.408;2024-03-07T03:51:09;22.27;;;10.68;;
80127;SDS011;69440;52.118;5.408;2024-03-07T03:53:39;22.08;;;11.52;;
80127;SDS011;69440;52.118;5.408;2024-03-07T03:56:09;23.08;;;11.30;;
80127;SDS011;69440;52.118;5.408;2024-03-07T03:58:39;26.10;;;11.13;;
80127;SDS011;69440;52.118;5.408;2024-03-07T04:01:06;23.83;;;12.05;;
80127;SDS011;69440;52.118;5.408;2024-03-07T04:03:34;24.70;;;11.45;;
80127;SDS011;69440;52.118;5.408;2024-03-07T04:08:27;23.48;;;11.18;;
80127;SDS011;69440;52.118;5.408;2024-03-07T04:10:54;26.88;;;11.80;;
80127;SDS011;69440;52.118;5.408;2024-03-07T04:13:20;24.65;;;11.70;;
80127;SDS011;69440;52.118;5.408;2024-03-07T04:15:48;27.75;;;11.02;;
80127;SDS011;69440;52.118;5.408;2024-03-07T04:20:41;27.40;;;11.30;;
80127;SDS011;69440;52.118;5.408;2024-03-07T04:23:10;25.83;;;11.70;;
80127;SDS011;69440;52.118;5.408;2024-03-07T04:25:38;25.38;;;11.73;;
80127;SDS011;69440;52.118;5.408;2024-03-07T04:30:31;23.17;;;11.20;;
80127;SDS011;69440;52.118;5.408;2024-03-07T04:35:25;27.27;;;11.45;;
80127;SDS011;69440;52.118;5.408;2024-03-07T04:40:19;23.75;;;10.43;;
80127;SDS011;69440;52.118;5.408;2024-03-07T04:45:12;21.25;;;10.32;;
80127;SDS011;69440;52.118;5.408;2024-03-07T04:47:40;19.35;;;9.38;;
80127;SDS011;69440;52.118;5.408;2024-03-07T04:50:10;21.52;;;10.48;;
80127;SDS011;69440;52.118;5.408;2024-03-07T04:52:39;22.38;;;10.70;;
80127;SDS011;69440;52.118;5.408;2024-03-07T04:55:06;21.52;;;9.95;;
80127;SDS011;69440;52.118;5.408;2024-03-07T04:57:37;21.15;;;10.52;;
80127;SDS011;69440;52.118;5.408;2024-03-07T05:00:06;24.10;;;10.35;;
80127;SDS011;69440;52.118;5.408;2024-03-07T05:02:33;23.00;;;10.75;;
80127;SDS011;69440;52.118;5.408;2024-03-07T05:05:00;23.88;;;10.70;;
80127;SDS011;69440;52.118;5.408;2024-03-07T05:09:53;23.38;;;10.88;;
80127;SDS011;69440;52.118;5.408;2024-03-07T05:12:19;23.27;;;12.18;;
80127;SDS011;69440;52.118;5.408;2024-03-07T05:14:46;21.83;;;9.75;;
80127;SDS011;69440;52.118;5.408;2024-03-07T05:19:39;19.98;;;9.93;;
80127;SDS011;69440;52.118;5.408;2024-03-07T05:24:32;24.88;;;11.40;;
80127;SDS011;69440;52.118;5.408;2024-03-07T05:27:00;26.02;;;10.77;;
80127;SDS011;69440;52.118;5.408;2024-03-07T05:29:27;23.27;;;11.25;;
80127;SDS011;69440;52.118;5.408;2024-03-07T05:31:53;25.95;;;11.70;;
80127;SDS011;69440;52.118;5.408;2024-03-07T05:34:20;23.42;;;11.35;;
80127;SDS011;69440;52.118;5.408;2024-03-07T05:36:49;24.67;;;12.02;;
80127;SDS011;69440;52.118;5.408;2024-03-07T05:41:44;26.23;;;10.70;;
80127;SDS011;69440;52.118;5.408;2024-03-07T05:44:12;22.92;;;10.70;;
80127;SDS011;69440;52.118;5.408;2024-03-07T05:46:42;24.08;;;10.88;;
80127;SDS011;69440;52.118;5.408;2024-03-07T05:49:15;23.88;;;12.05;;
80127;SDS011;69440;52.118;5.408;2024-03-07T05:51:46;22.65;;;10.63;;
80127;SDS011;69440;52.118;5.408;2024-03-07T05:54:13;23.25;;;11.02;;
80127;SDS011;69440;52.118;5.408;2024-03-07T05:56:40;25.95;;;11.70;;
80127;SDS011;69440;52.118;5.408;2024-03-07T05:59:07;20.17;;;10.90;;
80127;SDS011;69440;52.118;5.408;2024-03-07T06:01:36;22.52;;;10.27;;
80127;SDS011;69440;52.118;5.408;2024-03-07T06:04:03;25.20;;;11.70;;
80127;SDS011;69440;52.118;5.408;2024-03-07T06:06:34;23.50;;;11.10;;
80127;SDS011;69440;52.118;5.408;2024-03-07T06:09:06;23.30;;;10.20;;
80127;SDS011;69440;52.118;5.408;2024-03-07T06:11:37;24.23;;;11.70;;
80127;SDS011;69440;52.118;5.408;2024-03-07T06:14:06;24.52;;;11.48;;
80127;SDS011;69440;52.118;5.408;2024-03-07T06:16:33;22.38;;;11.70;;
80127;SDS011;69440;52.118;5.408;2024-03-07T06:19:02;25.08;;;11.25;;
80127;SDS011;69440;52.118;5.408;2024-03-07T06:21:32;24.50;;;11.95;;
80127;SDS011;69440;52.118;5.408;2024-03-07T06:24:00;24.00;;;12.18;;
80127;SDS011;69440;52.118;5.408;2024-03-07T06:29:29;26.55;;;12.43;;
80127;SDS011;69440;52.118;5.408;2024-03-07T06:31:56;25.50;;;11.20;;
80127;SDS011;69440;52.118;5.408;2024-03-07T06:34:22;26.90;;;12.85;;
80127;SDS011;69440;52.118;5.408;2024-03-07T06:39:15;28.48;;;11.90;;
80127;SDS011;69440;52.118;5.408;2024-03-07T06:41:42;28.90;;;13.15;;
80127;SDS011;69440;52.118;5.408;2024-03-07T06:44:08;28.33;;;13.00;;
80127;SDS011;69440;52.118;5.408;2024-03-07T06:46:36;30.90;;;13.30;;
80127;SDS011;69440;52.118;5.408;2024-03-07T06:51:37;29.77;;;12.43;;
80127;SDS011;69440;52.118;5.408;2024-03-07T06:56:33;30.05;;;13.75;;
80127;SDS011;69440;52.118;5.408;2024-03-07T06:59:00;29.67;;;13.60;;
80127;SDS011;69440;52.118;5.408;2024-03-07T07:01:30;28.95;;;14.18;;
80127;SDS011;69440;52.118;5.408;2024-03-07T07:03:57;33.33;;;15.35;;
80127;SDS011;69440;52.118;5.408;2024-03-07T07:06:24;34.17;;;16.50;;
80127;SDS011;69440;52.118;5.408;2024-03-07T07:08:52;31.70;;;14.10;;
80127;SDS011;69440;52.118;5.408;2024-03-07T07:13:45;37.47;;;15.65;;
80127;SDS011;69440;52.118;5.408;2024-03-07T07:16:13;35.80;;;15.20;;
80127;SDS011;69440;52.118;5.408;2024-03-07T07:21:05;37.83;;;16.25;;
80127;SDS011;69440;52.118;5.408;2024-03-07T07:23:36;32.60;;;15.10;;
80127;SDS011;69440;52.118;5.408;2024-03-07T07:26:03;31.58;;;15.77;;
80127;SDS011;69440;52.118;5.408;2024-03-07T07:28:31;33.17;;;15.45;;
80127;SDS011;69440;52.118;5.408;2024-03-07T07:30:59;32.47;;;14.43;;
80127;SDS011;69440;52.118;5.408;2024-03-07T07:33:25;31.45;;;14.63;;
80127;SDS011;69440;52.118;5.408;2024-03-07T07:35:52;31.95;;;15.20;;
80127;SDS011;69440;52.118;5.408;2024-03-07T07:38:21;34.65;;;16.30;;
80127;SDS011;69440;52.118;5.408;2024-03-07T07:40:47;34.38;;;15.75;;
80127;SDS011;69440;52.118;5.408;2024-03-07T07:43:16;28.80;;;13.90;;
80127;SDS011;69440;52.118;5.408;2024-03-07T07:45:58;29.92;;;14.30;;
80127;SDS011;69440;52.118;5.408;2024-03-07T07:48:25;28.08;;;13.80;;
80127;SDS011;69440;52.118;5.408;2024-03-07T07:50:52;28.77;;;14.15;;
80127;SDS011;69440;52.118;5.408;2024-03-07T07:53:18;28.20;;;13.57;;
80127;SDS011;69440;52.118;5.408;2024-03-07T07:55:45;31.02;;;14.57;;
80127;SDS011;69440;52.118;5.408;2024-03-07T07:58:13;28.65;;;14.52;;
80127;SDS011;69440;52.118;5.408;2024-03-07T08:00:39;30.90;;;14.07;;
80127;SDS011;69440;52.118;5.408;2024-03-07T08:03:09;28.67;;;14.73;;
80127;SDS011;69440;52.118;5.408;2024-03-07T08:05:37;29.63;;;13.55;;
80127;SDS011;69440;52.118;5.408;2024-03-07T08:08:07;32.00;;;14.32;;
80127;SDS011;69440;52.118;5.408;2024-03-07T08:10:37;28.73;;;13.90;;
80127;SDS011;69440;52.118;5.408;2024-03-07T08:13:06;25.80;;;14.20;;
80127;SDS011;69440;52.118;5.408;2024-03-07T08:15:34;27.80;;;14.18;;
80127;SDS011;69440;52.118;5.408;2024-03-07T08:18:01;22.15;;;12.55;;
80127;SDS011;69440;52.118;5.408;2024-03-07T08:20:28;26.35;;;12.85;;
80127;SDS011;69440;52.118;5.408;2024-03-07T08:22:56;25.63;;;13.60;;
80127;SDS011;69440;52.118;5.408;2024-03-07T08:25:23;24.05;;;12.85;;
80127;SDS011;69440;52.118;5.408;2024-03-07T08:27:55;26.77;;;13.50;;
80127;SDS011;69440;52.118;5.408;2024-03-07T08:30:24;24.45;;;13.38;;
80127;SDS011;69440;52.118;5.408;2024-03-07T08:32:53;24.50;;;12.60;;
80127;SDS011;69440;52.118;5.408;2024-03-07T08:35:22;25.65;;;13.73;;
80127;SDS011;69440;52.118;5.408;2024-03-07T08:37:50;22.70;;;12.75;;
80127;SDS011;69440;52.118;5.408;2024-03-07T08:40:25;27.50;;;13.82;;
80127;SDS011;69440;52.118;5.408;2024-03-07T08:42:55;26.80;;;13.23;;
80127;SDS011;69440;52.118;5.408;2024-03-07T08:45:23;25.08;;;12.57;;
80127;SDS011;69440;52.118;5.408;2024-03-07T08:47:51;19.35;;;10.68;;
80127;SDS011;69440;52.118;5.408;2024-03-07T08:50:21;21.98;;;10.65;;
80127;SDS011;69440;52.118;5.408;2024-03-07T08:52:49;23.70;;;11.60;;
80127;SDS011;69440;52.118;5.408;2024-03-07T08:55:16;20.80;;;11.77;;
80127;SDS011;69440;52.118;5.408;2024-03-07T08:57:46;20.60;;;10.63;;
80127;SDS011;69440;52.118;5.408;2024-03-07T09:00:15;20.08;;;10.27;;
80127;SDS011;69440;52.118;5.408;2024-03-07T09:02:50;21.95;;;10.90;;
80127;SDS011;69440;52.118;5.408;2024-03-07T09:05:21;18.73;;;11.25;;
80127;SDS011;69440;52.118;5.408;2024-03-07T09:07:49;20.77;;;10.05;;
80127;SDS011;69440;52.118;5.408;2024-03-07T09:10:17;17.05;;;9.60;;
80127;SDS011;69440;52.118;5.408;2024-03-07T09:12:44;17.65;;;10.73;;
80127;SDS011;69440;52.118;5.408;2024-03-07T09:15:11;13.27;;;8.60;;
80127;SDS011;69440;52.118;5.408;2024-03-07T09:17:38;18.27;;;10.73;;
80127;SDS011;69440;52.118;5.408;2024-03-07T09:20:05;18.35;;;10.35;;
80127;SDS011;69440;52.118;5.408;2024-03-07T09:22:37;16.10;;;9.60;;
80127;SDS011;69440;52.118;5.408;2024-03-07T09:25:03;15.93;;;10.07;;
80127;SDS011;69440;52.118;5.408;2024-03-07T09:27:30;15.70;;;9.52;;
80127;SDS011;69440;52.118;5.408;2024-03-07T09:29:56;16.55;;;9.18;;
80127;SDS011;69440;52.118;5.408;2024-03-07T09:32:24;16.75;;;8.85;;
80127;SDS011;69440;52.118;5.408;2024-03-07T09:34:50;18.48;;;10.35;;
80127;SDS011;69440;52.118;5.408;2024-03-07T09:37:17;15.75;;;8.55;;
80127;SDS011;69440;52.118;5.408;2024-03-07T09:39:44;17.02;;;9.55;;
80127;SDS011;69440;52.118;5.408;2024-03-07T09:42:10;16.88;;;9.75;;
80127;SDS011;69440;52.118;5.408;2024-03-07T09:44:38;19.02;;;9.27;;
80127;SDS011;69440;52.118;5.408;2024-03-07T09:47:08;16.30;;;9.35;;
80127;SDS011;69440;52.118;5.408;2024-03-07T09:49:35;17.45;;;9.30;;
80127;SDS011;69440;52.118;5.408;2024-03-07T09:52:04;16.40;;;8.57;;
80127;SDS011;69440;52.118;5.408;2024-03-07T09:54:34;16.63;;;9.40;;
80127;SDS011;69440;52.118;5.408;2024-03-07T09:57:01;16.92;;;10.00;;
80127;SDS011;69440;52.118;5.408;2024-03-07T09:59:30;14.70;;;8.93;;
80127;SDS011;69440;52.118;5.408;2024-03-07T10:02:01;17.40;;;9.43;;
80127;SDS011;69440;52.118;5.408;2024-03-07T10:04:37;16.52;;;9.68;;
80127;SDS011;69440;52.118;5.408;2024-03-07T10:07:11;18.92;;;9.13;;
80127;SDS011;69440;52.118;5.408;2024-03-07T10:09:42;15.93;;;9.15;;
80127;SDS011;69440;52.118;5.408;2024-03-07T10:12:10;17.55;;;9.38;;
80127;SDS011;69440;52.118;5.408;2024-03-07T10:14:47;13.93;;;8.73;;
80127;SDS011;69440;52.118;5.408;2024-03-07T10:17:15;18.20;;;9.63;;
80127;SDS011;69440;52.118;5.408;2024-03-07T10:19:42;17.90;;;9.45;;
80127;SDS011;69440;52.118;5.408;2024-03-07T10:22:09;17.27;;;9.23;;
80127;SDS011;69440;52.118;5.408;2024-03-07T10:24:35;19.52;;;8.65;;
80127;SDS011;69440;52.118;5.408;2024-03-07T10:27:02;16.45;;;9.75;;
80127;SDS011;69440;52.118;5.408;2024-03-07T10:29:32;18.00;;;9.57;;
80127;SDS011;69440;52.118;5.408;2024-03-07T10:31:59;18.55;;;9.65;;
80127;SDS011;69440;52.118;5.408;2024-03-07T10:34:33;16.88;;;9.38;;
80127;SDS011;69440;52.118;5.408;2024-03-07T10:37:00;16.13;;;8.73;;
80127;SDS011;69440;52.118;5.408;2024-03-07T10:39:30;17.30;;;9.85;;
80127;SDS011;69440;52.118;5.408;2024-03-07T10:41:57;17.63;;;9.38;;
80127;SDS011;69440;52.118;5.408;2024-03-07T10:44:32;14.02;;;8.40;;
80127;SDS011;69440;52.118;5.408;2024-03-07T10:47:02;15.20;;;8.70;;
80127;SDS011;69440;52.118;5.408;2024-03-07T10:49:31;16.85;;;9.13;;
80127;SDS011;69440;52.118;5.408;2024-03-07T10:52:03;15.38;;;8.02;;
80127;SDS011;69440;52.118;5.408;2024-03-07T10:54:44;15.60;;;9.05;;
80127;SDS011;69440;52.118;5.408;2024-03-07T11:00:06;15.52;;;8.68;;
80127;SDS011;69440;52.118;5.408;2024-03-07T11:02:56;18.10;;;9.43;;
80127;SDS011;69440;52.118;5.408;2024-03-07T11:05:25;16.45;;;9.52;;
80127;SDS011;69440;52.118;5.408;2024-03-07T11:07:57;16.95;;;8.90;;
80127;SDS011;69440;52.118;5.408;2024-03-07T11:10:25;18.15;;;8.32;;
80127;SDS011;69440;52.118;5.408;2024-03-07T11:12:52;16.73;;;9.95;;
80127;SDS011;69440;52.118;5.408;2024-03-07T11:15:21;18.30;;;9.50;;
80127;SDS011;69440;52.118;5.408;2024-03-07T11:17:50;17.33;;;8.75;;
80127;SDS011;69440;52.118;5.408;2024-03-07T11:20:23;14.68;;;8.63;;
80127;SDS011;69440;52.118;5.408;2024-03-07T11:22:51;15.38;;;8.52;;
80127;SDS011;69440;52.118;5.408;2024-03-07T11:25:20;16.80;;;10.10;;
80127;SDS011;69440;52.118;5.408;2024-03-07T11:27:51;18.20;;;9.40;;
80127;SDS011;69440;52.118;5.408;2024-03-07T11:30:22;16.90;;;9.45;;
80127;SDS011;69440;52.118;5.408;2024-03-07T11:32:50;19.25;;;9.55;;
80127;SDS011;69440;52.118;5.408;2024-03-07T11:35:20;16.05;;;9.50;;
80127;SDS011;69440;52.118;5.408;2024-03-07T11:37:57;15.65;;;8.45;;
80127;SDS011;69440;52.118;5.408;2024-03-07T11:42:52;15.82;;;9.23;;
80127;SDS011;69440;52.118;5.408;2024-03-07T11:45:22;16.98;;;9.38;;
80127;SDS011;69440;52.118;5.408;2024-03-07T11:47:56;17.60;;;8.80;;
80127;SDS011;69440;52.118;5.408;2024-03-07T11:50:27;17.00;;;10.15;;
80127;SDS011;69440;52.118;5.408;2024-03-07T11:52:55;16.98;;;9.05;;
80127;SDS011;69440;52.118;5.408;2024-03-07T11:55:22;15.90;;;8.55;;
80127;SDS011;69440;52.118;5.408;2024-03-07T11:57:49;17.42;;;8.95;;
80127;SDS011;69440;52.118;5.408;2024-03-07T12:00:19;15.43;;;8.80;;
80127;SDS011;69440;52.118;5.408;2024-03-07T12:02:47;16.05;;;9.18;;
80127;SDS011;69440;52.118;5.408;2024-03-07T12:05:15;16.13;;;9.18;;
80127;SDS011;69440;52.118;5.408;2024-03-07T12:07:43;15.63;;;9.38;;
80127;SDS011;69440;52.118;5.408;2024-03-07T12:10:10;15.35;;;9.52;;
80127;SDS011;69440;52.118;5.408;2024-03-07T12:12:36;15.05;;;9.15;;
80127;SDS011;69440;52.118;5.408;2024-03-07T12:15:06;16.35;;;9.55;;
80127;SDS011;69440;52.118;5.408;2024-03-07T12:17:42;17.23;;;10.10;;
80127;SDS011;69440;52.118;5.408;2024-03-07T12:20:09;15.57;;;9.68;;
80127;SDS011;69440;52.118;5.408;2024-03-07T12:22:57;15.40;;;9.85;;
80127;SDS011;69440;52.118;5.408;2024-03-07T12:25:27;14.82;;;9.85;;
80127;SDS011;69440;52.118;5.408;2024-03-07T12:30:32;16.70;;;10.02;;
80127;SDS011;69440;52.118;5.408;2024-03-07T12:33:00;14.05;;;9.57;;
80127;SDS011;69440;52.118;5.408;2024-03-07T12:35:31;15.43;;;10.40;;
80127;SDS011;69440;52.118;5.408;2024-03-07T12:37:58;13.85;;;9.00;;
80127;SDS011;69440;52.118;5.408;2024-03-07T12:40:26;12.90;;;9.52;;
80127;SDS011;69440;52.118;5.408;2024-03-07T12:42:55;13.63;;;9.32;;
80127;SDS011;69440;52.118;5.408;2024-03-07T12:45:22;15.52;;;10.23;;
80127;SDS011;69440;52.118;5.408;2024-03-07T12:47:51;11.90;;;9.15;;
80127;SDS011;69440;52.118;5.408;2024-03-07T12:50:20;12.77;;;9.50;;
80127;SDS011;69440;52.118;5.408;2024-03-07T12:52:48;13.77;;;9.80;;
80127;SDS011;69440;52.118;5.408;2024-03-07T12:55:18;13.68;;;9.75;;
80127;SDS011;69440;52.118;5.408;2024-03-07T12:57:46;13.07;;;10.10;;
80127;SDS011;69440;52.118;5.408;2024-03-07T13:00:12;12.50;;;9.82;;
80127;SDS011;69440;52.118;5.408;2024-03-07T13:02:46;15.95;;;10.38;;
80127;SDS011;69440;52.118;5.408;2024-03-07T13:05:13;12.95;;;9.50;;
80127;SDS011;69440;52.118;5.408;2024-03-07T13:07:48;13.68;;;10.20;;
80127;SDS011;69440;52.118;5.408;2024-03-07T13:10:15;13.40;;;9.73;;
80127;SDS011;69440;52.118;5.408;2024-03-07T13:12:44;14.30;;;10.07;;
80127;SDS011;69440;52.118;5.408;2024-03-07T13:15:18;13.55;;;10.07;;
80127;SDS011;69440;52.118;5.408;2024-03-07T13:17:48;11.73;;;9.27;;
80127;SDS011;69440;52.118;5.408;2024-03-07T13:20:18;13.75;;;9.15;;
80127;SDS011;69440;52.118;5.408;2024-03-07T13:22:48;11.13;;;9.07;;
80127;SDS011;69440;52.118;5.408;2024-03-07T13:25:19;12.55;;;9.13;;
80127;SDS011;69440;52.118;5.408;2024-03-07T13:27:54;12.50;;;9.00;;
80127;SDS011;69440;52.118;5.408;2024-03-07T13:30:25;11.93;;;8.70;;
80127;SDS011;69440;52.118;5.408;2024-03-07T13:32:56;10.60;;;8.65;;
80127;SDS011;69440;52.118;5.408;2024-03-07T13:35:23;10.55;;;8.40;;
80127;SDS011;69440;52.118;5.408;2024-03-07T13:37:52;10.07;;;8.27;;
80127;SDS011;69440;52.118;5.408;2024-03-07T13:40:23;10.55;;;9.00;;
80127;SDS011;69440;52.118;5.408;2024-03-07T13:42:51;11.32;;;8.55;;
80127;SDS011;69440;52.118;5.408;2024-03-07T13:45:18;12.27;;;9.48;;
80127;SDS011;69440;52.118;5.408;2024-03-07T13:47:47;10.88;;;9.18;;
80127;SDS011;69440;52.118;5.408;2024-03-07T13:50:19;10.23;;;9.13;;
80127;SDS011;69440;52.118;5.408;2024-03-07T13:53:08;12.55;;;9.48;;
80127;SDS011;69440;52.118;5.408;2024-03-07T14:18:58;12.07;;;9.65;;
80127;SDS011;69440;52.118;5.408;2024-03-07T14:30:52;10.25;;;8.60;;
80127;SDS011;69440;52.118;5.408;2024-03-07T14:33:29;12.35;;;8.95;;
80127;SDS011;69440;52.118;5.408;2024-03-07T14:36:11;10.95;;;8.55;;
80127;SDS011;69440;52.118;5.408;2024-03-07T14:38:46;10.13;;;8.20;;
80127;SDS011;69440;52.118;5.408;2024-03-07T14:44:20;14.32;;;8.38;;
80127;SDS011;69440;52.118;5.408;2024-03-07T14:46:49;11.18;;;8.95;;
80127;SDS011;69440;52.118;5.408;2024-03-07T14:49:19;12.32;;;9.13;;
80127;SDS011;69440;52.118;5.408;2024-03-07T14:51:46;12.98;;;9.45;;
80127;SDS011;69440;52.118;5.408;2024-03-07T14:54:25;16.48;;;9.48;;
80127;SDS011;69440;52.118;5.408;2024-03-07T14:56:52;13.85;;;9.32;;
80127;SDS011;69440;52.118;5.408;2024-03-07T14:59:19;11.90;;;7.90;;
80127;SDS011;69440;52.118;5.408;2024-03-07T15:01:47;12.90;;;8.27;;
80127;SDS011;69440;52.118;5.408;2024-03-07T15:04:14;12.52;;;7.68;;
80127;SDS011;69440;52.118;5.408;2024-03-07T15:06:41;12.07;;;7.90;;
80127;SDS011;69440;52.118;5.408;2024-03-07T15:09:08;12.70;;;7.90;;
80127;SDS011;69440;52.118;5.408;2024-03-07T15:11:36;13.43;;;7.68;;
80127;SDS011;69440;52.118;5.408;2024-03-07T15:14:09;13.73;;;8.18;;
80127;SDS011;69440;52.118;5.408;2024-03-07T15:16:38;13.95;;;7.95;;
80127;SDS011;69440;52.118;5.408;2024-03-07T15:19:06;12.88;;;7.93;;
80127;SDS011;69440;52.118;5.408;2024-03-07T15:21:35;11.38;;;7.72;;
80127;SDS011;69440;52.118;5.408;2024-03-07T15:24:03;12.00;;;7.50;;
80127;SDS011;69440;52.118;5.408;2024-03-07T15:26:30;11.23;;;7.28;;
80127;SDS011;69440;52.118;5.408;2024-03-07T15:28:57;12.15;;;7.40;;
80127;SDS011;69440;52.118;5.408;2024-03-07T15:31:28;13.30;;;7.95;;
80127;SDS011;69440;52.118;5.408;2024-03-07T15:33:55;13.10;;;8.00;;
80127;SDS011;69440;52.118;5.408;2024-03-07T15:36:22;13.15;;;8.10;;
80127;SDS011;69440;52.118;5.408;2024-03-07T15:38:49;13.73;;;8.63;;
80127;SDS011;69440;52.118;5.408;2024-03-07T15:41:16;12.90;;;8.23;;
80127;SDS011;69440;52.118;5.408;2024-03-07T15:43:44;13.85;;;8.40;;
80127;SDS011;69440;52.118;5.408;2024-03-07T15:46:11;15.48;;;8.45;;
80127;SDS011;69440;52.118;5.408;2024-03-07T15:48:39;13.70;;;8.57;;
80127;SDS011;69440;52.118;5.408;2024-03-07T15:51:06;17.02;;;9.50;;
80127;SDS011;69440;52.118;5.408;2024-03-07T15:53:34;15.05;;;8.15;;
80127;SDS011;69440;52.118;5.408;2024-03-07T15:56:02;13.30;;;8.05;;
80127;SDS011;69440;52.118;5.408;2024-03-07T15:58:28;13.55;;;8.20;;
80127;SDS011;69440;52.118;5.408;2024-03-07T16:00:55;15.88;;;9.35;;
80127;SDS011;69440;52.118;5.408;2024-03-07T16:03:24;14.50;;;9.15;;
80127;SDS011;69440;52.118;5.408;2024-03-07T16:05:51;15.27;;;8.82;;
80127;SDS011;69440;52.118;5.408;2024-03-07T16:08:18;15.43;;;8.40;;
80127;SDS011;69440;52.118;5.408;2024-03-07T16:10:45;14.55;;;7.90;;
80127;SDS011;69440;52.118;5.408;2024-03-07T16:13:13;15.00;;;8.55;;
80127;SDS011;69440;52.118;5.408;2024-03-07T16:15:44;13.88;;;8.52;;
80127;SDS011;69440;52.118;5.408;2024-03-07T16:18:11;13.23;;;8.07;;
80127;SDS011;69440;52.118;5.408;2024-03-07T16:20:38;15.85;;;9.43;;
80127;SDS011;69440;52.118;5.408;2024-03-07T16:23:06;16.85;;;8.35;;
80127;SDS011;69440;52.118;5.408;2024-03-07T16:25:43;16.75;;;9.10;;
80127;SDS011;69440;52.118;5.408;2024-03-07T16:28:10;14.20;;;8.52;;
80127;SDS011;69440;52.118;5.408;2024-03-07T16:30:40;14.50;;;8.73;;